createdAt,value
2022-08-08T00:02:03.697Z,68.70
2022-08-08T00:04:49.440Z,69.40
2022-08-08T00:07:36.206Z,69.60
2022-08-08T00:10:28.487Z,69.50
2022-08-08T00:13:20.532Z,71.50
2022-08-08T00:16:07.557Z,70.70
2022-08-08T00:19:02.467Z,71.40
2022-08-08T00:21:50.681Z,71.90
2022-08-08T00:24:29.741Z,72.90
2022-08-08T00:27:06.018Z,72.50
2022-08-08T00:29:44.718Z,72.70
2022-08-08T00:32:36.494Z,72.90
2022-08-08T00:35:29.814Z,75.00
2022-08-08T00:38:16.956Z,75.30
2022-08-08T00:41:22.123Z,74.90
2022-08-08T00:44:27.675Z,76.20
2022-08-08T00:46:59.378Z,75.90
2022-08-08T00:50:03.245Z,75.30
2022-08-08T00:52:48.868Z,74.70
2022-08-08T00:55:59.140Z,74.50
2022-08-08T00:59:06.998Z,75.90
2022-08-08T01:02:01.435Z,76.20
2022-08-08T01:05:41.830Z,75.90
2022-08-08T01:08:35.533Z,77.70
2022-08-08T01:11:44.087Z,77.00
2022-08-08T01:15:00.325Z,77.50
2022-08-08T01:18:02.383Z,77.70
2022-08-08T01:21:10.996Z,78.80
2022-08-08T01:24:13.697Z,79.60
2022-08-08T01:27:32.686Z,80.60
2022-08-08T01:30:34.108Z,80.90
2022-08-08T01:33:43.162Z,80.90
2022-08-08T01:37:02.124Z,80.00
2022-08-08T01:40:18.818Z,80.70
2022-08-08T01:43:06.974Z,81.40
2022-08-08T01:46:01.103Z,80.60
2022-08-08T01:49:37.111Z,80.80
2022-08-08T01:52:54.871Z,81.90
2022-08-08T01:55:25.980Z,80.60
2022-08-08T01:58:32.280Z,80.90
2022-08-08T02:02:00.629Z,81.30
2022-08-08T02:04:43.472Z,81.80
2022-08-08T02:07:41.660Z,81.00
2022-08-08T02:10:54.563Z,81.50
2022-08-08T02:13:52.594Z,82.30
2022-08-08T02:16:39.026Z,83.00
2022-08-08T02:20:08.026Z,81.90
2022-08-08T02:22:31.858Z,82.30
2022-08-08T02:25:46.880Z,82.60
2022-08-08T02:28:36.367Z,83.70
2022-08-08T02:31:24.598Z,83.20
2022-08-08T02:34:34.467Z,85.60
2022-08-08T02:37:52.119Z,83.60
2022-08-08T02:40:30.110Z,84.00
2022-08-08T02:44:37.407Z,84.40
2022-08-08T02:46:15.544Z,84.30
2022-08-08T02:49:27.617Z,84.60
2022-08-08T02:52:38.652Z,85.20
2022-08-08T02:55:48.856Z,84.50
2022-08-08T02:59:06.048Z,85.20
2022-08-08T03:02:20.124Z,85.60
2022-08-08T03:05:10.954Z,84.80
2022-08-08T03:07:58.368Z,85.00
2022-08-08T03:11:06.951Z,84.50
2022-08-08T03:15:56.683Z,85.60
2022-08-08T03:17:25.848Z,85.70
2022-08-08T03:20:10.569Z,85.50
2022-08-08T03:22:57.039Z,86.10
2022-08-08T03:25:36.201Z,86.90
2022-08-08T03:28:37.469Z,86.90
2022-08-08T03:31:37.950Z,88.30
2022-08-08T03:37:19.972Z,88.00
2022-08-08T03:40:00.296Z,88.30
2022-08-08T03:42:31.037Z,88.60
2022-08-08T03:46:05.399Z,89.00
2022-08-08T03:48:00.727Z,89.20
2022-08-08T03:50:41.175Z,89.30
2022-08-08T03:53:42.261Z,89.50
2022-08-08T03:56:36.128Z,90.10
2022-08-08T03:59:05.103Z,89.90
2022-08-08T04:02:13.027Z,89.90
2022-08-08T04:04:41.907Z,89.80
2022-08-08T04:07:10.834Z,90.00
2022-08-08T04:09:59.306Z,90.10
2022-08-08T04:12:37.508Z,90.20
2022-08-08T04:15:07.490Z,90.30
2022-08-08T04:17:59.091Z,91.40
2022-08-08T04:20:36.820Z,90.40
2022-08-08T04:23:07.061Z,90.50
2022-08-08T04:25:45.904Z,90.70
2022-08-08T04:28:36.698Z,90.90
2022-08-08T04:31:09.466Z,91.00
2022-08-08T04:33:42.262Z,91.00
2022-08-08T04:36:14.762Z,91.10
2022-08-08T04:38:57.266Z,91.10
2022-08-08T04:41:42.412Z,91.20
2022-08-08T04:44:16.060Z,91.30
2022-08-08T04:46:52.463Z,91.40
2022-08-08T04:49:28.745Z,91.50
2022-08-08T04:52:25.296Z,91.70
2022-08-08T04:55:02.258Z,91.70
2022-08-08T04:57:30.838Z,91.70
2022-08-08T05:00:02.237Z,91.70
2022-08-08T05:02:32.046Z,91.70
2022-08-08T05:05:02.120Z,91.70
2022-08-08T05:07:42.744Z,91.80
2022-08-08T05:10:17.283Z,91.90
2022-08-08T05:13:00.578Z,91.90
2022-08-08T05:16:53.503Z,92.00
2022-08-08T05:18:27.930Z,91.90
2022-08-08T05:21:05.799Z,92.10
2022-08-08T05:23:41.421Z,92.10
2022-08-08T05:26:14.729Z,92.10
2022-08-08T05:28:56.443Z,92.20
2022-08-08T05:32:04.411Z,92.10
2022-08-08T05:34:50.625Z,92.20
2022-08-08T05:37:54.525Z,92.30
2022-08-08T05:40:38.787Z,92.50
2022-08-08T05:43:39.534Z,92.20
2022-08-08T05:46:24.397Z,92.30
2022-08-08T05:48:54.571Z,92.50
2022-08-08T05:51:28.152Z,92.70
2022-08-08T05:54:26.787Z,92.70
2022-08-08T05:57:11.354Z,92.70
2022-08-08T05:59:59.552Z,92.70
2022-08-08T06:03:05.671Z,92.60
2022-08-08T06:05:59.150Z,92.50
2022-08-08T06:08:53.218Z,92.30
2022-08-08T06:11:28.008Z,92.30
2022-08-08T06:13:58.909Z,92.30
2022-08-08T06:16:33.762Z,92.30
2022-08-08T06:19:29.574Z,92.10
2022-08-08T06:22:32.054Z,92.00
2022-08-08T06:24:54.566Z,92.00
2022-08-08T06:27:48.055Z,91.90
2022-08-08T06:30:26.069Z,91.20
2022-08-08T06:33:02.378Z,91.70
2022-08-08T06:36:08.675Z,91.50
2022-08-08T06:38:43.633Z,91.30
2022-08-08T06:41:17.765Z,91.30
2022-08-08T06:43:57.667Z,91.10
2022-08-08T06:46:33.360Z,90.70
2022-08-08T06:49:03.749Z,90.60
2022-08-08T06:51:46.859Z,90.20
2022-08-08T06:54:23.359Z,89.90
2022-08-08T06:56:52.812Z,89.30
2022-08-08T06:59:22.417Z,88.80
2022-08-08T07:02:26.792Z,88.40
2022-08-08T07:05:11.900Z,87.50
2022-08-08T07:08:00.766Z,85.70
2022-08-08T07:10:39.574Z,86.40
2022-08-08T07:13:25.942Z,85.60
2022-08-08T07:16:37.722Z,83.80
2022-08-08T07:19:41.654Z,80.70
2022-08-08T07:22:11.891Z,81.50
2022-08-08T07:24:58.532Z,83.00
2022-08-08T07:28:01.899Z,80.90
2022-08-08T07:30:41.198Z,80.20
2022-08-08T07:33:17.693Z,80.30
2022-08-08T07:35:48.610Z,79.80
2022-08-08T07:38:20.909Z,79.00
2022-08-08T07:41:05.166Z,77.70
2022-08-08T07:43:38.110Z,77.10
2022-08-08T07:46:23.503Z,76.60
2022-08-08T07:49:49.778Z,76.20
2022-08-08T07:52:43.943Z,73.50
2022-08-08T07:55:28.524Z,74.80
2022-08-08T07:58:36.406Z,69.90
2022-08-08T08:01:10.674Z,70.80
2022-08-08T08:04:07.085Z,73.20
2022-08-08T08:06:43.974Z,70.60
2022-08-08T08:09:22.210Z,71.80
2022-08-08T08:11:52.784Z,69.10
2022-08-08T08:14:45.093Z,70.00
2022-08-08T08:17:18.470Z,69.10
2022-08-08T08:19:55.713Z,68.50
2022-08-08T08:22:33.486Z,68.30
2022-08-08T08:25:07.498Z,67.30
2022-08-08T08:27:46.616Z,66.30
2022-08-08T08:30:19.252Z,66.00
2022-08-08T08:32:52.029Z,64.40
2022-08-08T08:35:29.821Z,64.10
2022-08-08T08:38:17.306Z,63.50
2022-08-08T08:40:51.391Z,62.40
2022-08-08T08:43:29.136Z,62.10
2022-08-08T08:46:03.473Z,62.10
2022-08-08T08:48:34.776Z,61.50
2022-08-08T08:51:04.494Z,60.80
2022-08-08T08:53:55.538Z,60.70
2022-08-08T08:56:39.730Z,60.20
2022-08-08T08:59:17.943Z,58.80
2022-08-08T09:02:00.015Z,59.90
2022-08-08T09:04:44.545Z,58.60
2022-08-08T09:07:39.315Z,58.80
2022-08-08T09:10:17.339Z,58.90
2022-08-08T09:12:50.582Z,58.90
2022-08-08T09:15:40.799Z,58.60
2022-08-08T09:18:14.777Z,57.80
2022-08-08T09:21:59.847Z,57.50
2022-08-08T09:23:38.283Z,57.60
2022-08-08T09:26:51.442Z,57.60
2022-08-08T09:29:25.089Z,55.70
2022-08-08T09:32:11.992Z,56.30
2022-08-08T09:34:51.254Z,55.40
2022-08-08T09:37:58.742Z,55.20
2022-08-08T09:40:40.702Z,54.70
2022-08-08T09:43:40.623Z,55.40
2022-08-08T09:46:32.302Z,55.00
2022-08-08T09:49:04.386Z,54.60
2022-08-08T09:52:07.228Z,54.60
2022-08-08T09:54:46.663Z,54.00
2022-08-08T09:57:25.294Z,53.50
2022-08-08T10:03:06.051Z,53.40
2022-08-08T10:05:39.836Z,52.40
2022-08-08T10:08:10.706Z,51.30
2022-08-08T10:10:50.136Z,51.60
2022-08-08T10:13:32.265Z,49.80
2022-08-08T10:16:06.831Z,49.90
2022-08-08T10:18:38.563Z,50.60
2022-08-08T10:21:26.184Z,50.60
2022-08-08T10:24:11.984Z,49.70
2022-08-08T10:27:00.834Z,49.20
2022-08-08T10:30:06.424Z,48.90
2022-08-08T10:32:38.220Z,47.80
2022-08-08T10:36:08.997Z,48.90
2022-08-08T10:38:20.663Z,48.10
2022-08-08T10:40:55.120Z,48.90
2022-08-08T10:43:25.161Z,47.10
2022-08-08T10:46:29.739Z,48.50
2022-08-08T10:49:01.956Z,48.80
2022-08-08T10:51:47.277Z,48.60
2022-08-08T10:54:25.248Z,48.00
2022-08-08T10:57:11.566Z,47.70
2022-08-08T10:59:40.980Z,47.40
2022-08-08T11:02:10.703Z,47.80
2022-08-08T11:04:53.086Z,47.60
2022-08-08T11:08:31.867Z,46.80
2022-08-08T11:10:28.711Z,47.80
2022-08-08T11:16:00.385Z,47.90
2022-08-08T11:18:33.566Z,47.90
2022-08-08T11:21:09.857Z,47.50
2022-08-08T11:23:42.606Z,48.70
2022-08-08T11:26:19.103Z,48.20
2022-08-08T11:28:51.991Z,47.70
2022-08-08T11:31:23.196Z,47.40
2022-08-08T11:34:02.872Z,47.10
2022-08-08T11:36:37.286Z,46.90
2022-08-08T11:39:10.937Z,46.20
2022-08-08T11:41:53.643Z,46.80
2022-08-08T11:44:28.955Z,46.60
2022-08-08T11:46:58.001Z,46.50
2022-08-08T11:49:27.789Z,46.60
2022-08-08T11:51:58.562Z,46.70
2022-08-08T11:54:38.006Z,46.80
2022-08-08T11:57:17.223Z,46.30
2022-08-08T12:00:12.674Z,45.70
2022-08-08T12:02:54.912Z,46.20
2022-08-08T12:05:38.847Z,46.00
2022-08-08T12:08:07.067Z,46.00
2022-08-08T12:10:49.005Z,45.90
2022-08-08T12:13:38.218Z,46.20
2022-08-08T12:16:31.689Z,46.10
2022-08-08T12:19:14.005Z,46.20
2022-08-08T12:21:58.717Z,45.60
2022-08-08T12:24:34.724Z,45.40
2022-08-08T12:27:19.659Z,45.40
2022-08-08T12:30:02.359Z,45.30
2022-08-08T12:32:45.410Z,46.20
2022-08-08T12:35:21.469Z,45.40
2022-08-08T12:38:08.999Z,45.40
2022-08-08T12:40:56.854Z,45.70
2022-08-08T12:43:47.998Z,45.70
2022-08-08T12:46:28.978Z,45.30
2022-08-08T12:49:25.251Z,45.50
2022-08-08T12:51:58.645Z,44.50
2022-08-08T12:54:36.037Z,45.10
2022-08-08T12:57:17.582Z,45.50
2022-08-08T13:00:04.749Z,45.00
2022-08-08T13:02:51.450Z,45.30
2022-08-08T13:05:26.299Z,45.20
2022-08-08T13:08:18.261Z,46.00
2022-08-08T13:11:00.249Z,46.10
2022-08-08T13:13:37.963Z,46.20
2022-08-08T13:16:25.732Z,46.20
2022-08-08T13:19:06.609Z,45.20
2022-08-08T13:21:53.197Z,45.20
2022-08-08T13:24:40.754Z,44.80
2022-08-08T13:27:19.803Z,45.10
2022-08-08T13:30:02.935Z,45.00
2022-08-08T13:32:43.088Z,45.10
2022-08-08T13:35:25.061Z,44.70
2022-08-08T13:38:06.794Z,44.70
2022-08-08T13:40:35.892Z,45.10
2022-08-08T13:43:09.164Z,45.50
2022-08-08T13:45:37.596Z,45.30
2022-08-08T13:48:13.396Z,44.80
2022-08-08T13:50:53.926Z,44.70
2022-08-08T13:53:36.827Z,44.90
2022-08-08T13:56:07.315Z,44.50
2022-08-08T13:58:57.244Z,44.10
2022-08-08T14:01:52.753Z,44.80
2022-08-08T14:04:28.489Z,44.50
2022-08-08T14:07:14.420Z,44.10
2022-08-08T14:10:05.227Z,43.50
2022-08-08T14:12:34.028Z,43.50
2022-08-08T14:15:03.111Z,43.50
2022-08-08T14:17:58.432Z,43.70
2022-08-08T14:20:56.631Z,43.70
2022-08-08T14:24:07.252Z,43.60
2022-08-08T14:26:28.992Z,43.80
2022-08-08T14:29:01.477Z,43.80
2022-08-08T14:32:09.371Z,43.80
2022-08-08T14:34:37.192Z,44.10
2022-08-08T14:37:09.348Z,43.30
2022-08-08T14:40:05.805Z,44.10
2022-08-08T14:42:55.342Z,43.70
2022-08-08T14:46:02.886Z,43.70
2022-08-08T14:48:59.290Z,43.30
2022-08-08T14:52:05.132Z,43.50
2022-08-08T14:54:38.178Z,44.10
2022-08-08T14:58:03.339Z,44.50
2022-08-08T15:00:10.395Z,45.50
2022-08-08T15:02:58.489Z,45.30
2022-08-08T15:05:54.383Z,45.50
2022-08-08T15:08:34.452Z,46.50
2022-08-08T15:11:17.562Z,46.20
2022-08-08T15:14:00.430Z,46.10
2022-08-08T15:16:34.764Z,46.00
2022-08-08T15:19:04.037Z,46.20
2022-08-08T15:21:32.367Z,46.60
2022-08-08T15:24:00.690Z,47.10
2022-08-08T15:26:33.908Z,47.50
2022-08-08T15:29:01.537Z,47.50
2022-08-08T15:32:03.212Z,47.40
2022-08-08T15:34:31.432Z,47.20
2022-08-08T15:39:43.610Z,47.00
2022-08-08T15:42:13.118Z,46.90
2022-08-08T15:44:47.472Z,46.90
2022-08-08T15:47:22.746Z,46.70
2022-08-08T15:50:01.849Z,46.60
2022-08-08T15:52:31.318Z,46.50
2022-08-08T15:55:04.454Z,46.50
2022-08-08T15:57:35.709Z,46.60
2022-08-08T16:00:27.644Z,46.50
2022-08-08T16:03:08.112Z,46.30
2022-08-08T16:06:00.886Z,46.40
2022-08-08T16:08:37.653Z,46.10
2022-08-08T16:13:10.123Z,46.50
2022-08-08T16:14:32.632Z,47.00
2022-08-08T16:17:07.692Z,47.20
2022-08-08T16:19:59.671Z,48.10
2022-08-08T16:22:31.414Z,48.30
2022-08-08T16:25:16.102Z,49.50
2022-08-08T16:27:43.849Z,49.20
2022-08-08T16:30:36.366Z,50.10
2022-08-08T16:33:13.961Z,50.60
2022-08-08T16:35:49.801Z,51.10
2022-08-08T16:38:31.402Z,51.20
2022-08-08T16:41:02.241Z,52.20
2022-08-08T16:43:30.067Z,51.80
2022-08-08T16:46:37.894Z,52.90
2022-08-08T16:49:06.032Z,53.60
2022-08-08T16:55:01.632Z,54.30
2022-08-08T16:55:02.066Z,53.30
2022-08-08T16:58:14.183Z,55.40
2022-08-08T17:00:26.297Z,54.70
2022-08-08T17:02:55.200Z,55.30
2022-08-08T17:05:23.087Z,55.70
2022-08-08T17:08:00.492Z,55.60
2022-08-08T17:10:28.400Z,56.10
2022-08-08T17:12:56.302Z,56.10
2022-08-08T17:15:24.294Z,56.60
2022-08-08T17:18:02.673Z,56.70
2022-08-08T17:20:39.615Z,57.20
2022-08-08T17:23:17.603Z,57.20
2022-08-08T17:26:13.182Z,57.00
2022-08-08T17:28:45.436Z,57.80
2022-08-08T17:31:44.282Z,57.50
2022-08-08T17:34:36.470Z,58.00
2022-08-08T17:37:00.060Z,57.70
2022-08-08T17:40:03.211Z,58.50
2022-08-08T17:42:23.974Z,58.30
2022-08-08T17:44:59.173Z,58.00
2022-08-08T17:47:40.131Z,58.60
2022-08-08T17:50:11.619Z,58.80
2022-08-08T17:52:43.266Z,59.00
2022-08-08T17:56:06.405Z,59.40
2022-08-08T17:58:02.007Z,60.00
2022-08-08T18:00:39.173Z,59.20
2022-08-08T18:03:13.655Z,59.40
2022-08-08T18:05:50.229Z,59.70
2022-08-08T18:08:38.142Z,60.30
2022-08-08T18:11:16.843Z,60.00
2022-08-08T18:13:48.657Z,60.60
2022-08-08T18:16:20.948Z,60.40
2022-08-08T18:18:56.267Z,60.80
2022-08-08T18:21:58.856Z,62.30
2022-08-08T18:24:22.036Z,61.30
2022-08-08T18:26:54.525Z,61.50
2022-08-08T18:29:33.247Z,62.30
2022-08-08T18:32:09.263Z,62.10
2022-08-08T18:34:40.646Z,62.70
2022-08-08T18:37:17.704Z,63.10
2022-08-08T18:39:58.918Z,63.40
2022-08-08T18:42:45.703Z,64.10
2022-08-08T18:45:45.049Z,64.30
2022-08-08T18:48:11.945Z,64.10
2022-08-08T18:50:58.660Z,65.50
2022-08-08T18:53:50.887Z,64.70
2022-08-08T18:56:27.268Z,64.90
2022-08-08T18:58:58.094Z,64.50
2022-08-08T19:02:28.095Z,65.00
2022-08-08T19:04:27.925Z,65.60
2022-08-08T19:07:00.523Z,64.80
2022-08-08T19:09:49.681Z,65.40
2022-08-08T19:12:26.339Z,65.50
2022-08-08T19:15:09.433Z,66.00
2022-08-08T19:18:31.152Z,65.90
2022-08-08T19:20:55.858Z,67.30
2022-08-08T19:23:26.065Z,66.70
2022-08-08T19:26:19.914Z,66.40
2022-08-08T19:28:51.589Z,67.00
2022-08-08T19:31:22.935Z,66.80
2022-08-08T19:34:30.087Z,67.00
2022-08-08T19:36:48.086Z,67.70
2022-08-08T19:39:19.491Z,67.90
2022-08-08T19:41:53.466Z,67.90
2022-08-08T19:44:26.830Z,68.10
2022-08-08T19:47:24.552Z,68.20
2022-08-08T19:50:00.450Z,70.90
2022-08-08T19:52:37.109Z,69.30
2022-08-08T19:55:12.884Z,69.30
2022-08-08T19:57:45.382Z,70.00
2022-08-08T20:00:29.217Z,69.80
2022-08-08T20:03:15.237Z,70.40
2022-08-08T20:06:14.053Z,70.80
2022-08-08T20:08:44.813Z,70.90
2022-08-08T20:11:16.397Z,71.00
2022-08-08T20:14:32.012Z,71.30
2022-08-08T20:16:40.590Z,71.60
2022-08-08T20:19:12.740Z,71.90
2022-08-08T20:21:44.189Z,72.20
2022-08-08T20:24:17.025Z,72.90
2022-08-08T20:26:47.232Z,73.10
2022-08-08T20:29:18.885Z,73.60
2022-08-08T20:32:10.245Z,73.90
2022-08-08T20:34:38.373Z,74.50
2022-08-08T20:39:58.375Z,75.50
2022-08-08T20:42:29.703Z,75.90
2022-08-08T20:45:01.206Z,76.60
2022-08-08T20:47:35.987Z,77.60
2022-08-08T20:50:10.255Z,78.40
2022-08-08T20:52:44.779Z,79.70
2022-08-08T20:55:22.528Z,80.80
2022-08-08T20:57:53.632Z,81.10
2022-08-08T21:00:23.562Z,82.30
2022-08-08T21:02:54.269Z,83.40
2022-08-08T21:05:49.178Z,84.60
2022-08-08T21:08:36.588Z,85.30
2022-08-08T21:11:17.427Z,85.70
2022-08-08T21:14:09.448Z,86.40
2022-08-08T21:16:38.659Z,87.60
2022-08-08T21:19:10.881Z,87.80
2022-08-08T21:21:41.141Z,89.00
2022-08-08T21:24:22.352Z,89.60
2022-08-08T21:26:58.731Z,91.50
2022-08-08T21:30:05.650Z,90.60
2022-08-08T21:32:25.093Z,90.20
2022-08-08T21:34:56.854Z,90.60
2022-08-08T21:37:54.346Z,90.70
2022-08-08T21:40:30.854Z,91.10
2022-08-08T21:42:59.490Z,92.60
2022-08-08T21:47:59.106Z,91.10
2022-08-08T21:48:41.699Z,91.30
2022-08-08T21:51:15.831Z,91.60
2022-08-08T21:54:23.210Z,91.80
2022-08-08T21:56:46.409Z,91.80
2022-08-08T22:02:34.352Z,92.30
2022-08-08T22:05:02.937Z,93.20
2022-08-08T22:07:40.819Z,92.10
2022-08-08T22:10:18.287Z,92.30
2022-08-08T22:13:17.947Z,92.50
2022-08-08T22:15:59.268Z,93.50
2022-08-08T22:18:38.933Z,93.00
2022-08-08T22:21:15.753Z,93.40
2022-08-08T22:23:53.882Z,93.40
2022-08-08T22:26:29.816Z,93.70
2022-08-08T22:29:04.645Z,93.60
2022-08-08T22:31:58.398Z,93.70
2022-08-08T22:34:40.920Z,93.90
2022-08-08T22:37:15.033Z,94.00
2022-08-08T22:40:03.332Z,94.10
2022-08-08T22:42:34.763Z,94.20
2022-08-08T22:45:15.865Z,94.30
2022-08-08T22:47:48.828Z,94.50
2022-08-08T22:50:27.022Z,94.60
2022-08-08T22:54:33.908Z,94.70
2022-08-08T22:55:59.438Z,94.80
2022-08-08T22:58:38.037Z,94.90
2022-08-08T23:02:00.961Z,95.00
2022-08-08T23:04:02.967Z,95.10
2022-08-08T23:06:31.962Z,95.20
2022-08-08T23:09:02.362Z,95.40
2022-08-08T23:12:29.188Z,95.50
2022-08-08T23:14:28.107Z,95.60
2022-08-08T23:16:59.376Z,95.80
2022-08-08T23:19:32.441Z,95.80
2022-08-08T23:22:04.460Z,95.80
2022-08-08T23:24:41.177Z,95.90
2022-08-08T23:27:37.514Z,96.10
2022-08-08T23:30:04.206Z,96.10
2022-08-08T23:32:33.243Z,96.20
2022-08-08T23:35:07.963Z,96.30
2022-08-08T23:38:02.042Z,96.40
2022-08-08T23:40:24.886Z,96.50
2022-08-08T23:42:53.725Z,96.50
2022-08-08T23:49:03.737Z,96.70
2022-08-08T23:49:04.475Z,96.60
2022-08-08T23:51:42.091Z,96.80
2022-08-08T23:54:41.354Z,96.80
2022-08-08T23:56:57.614Z,96.80
2022-08-08T23:59:26.719Z,96.90
